Time;durP1;ratioP1;P1;durP2;ratioP2;P2;SDS_P1;SDS_P2;PMS_P1;PMS_P2;Temp;Humidity;BMP_temperature;BMP_pressure;BME280_temperature;BME280_humidity;BME280_pressure;Samples;Min_cycle;Max_cycle;Signal;HPM_P1;HPM_P2
2024/03/12 00:02:48;;;;;;;0.10;0.05;;;2.70;99.90;;;;;;20982281;28;20033;-48
2024/03/12 00:12:51;;;;;;;0.20;0.10;;;2.90;99.90;;;;;;20984680;28;20033;-43
2024/03/12 00:22:53;;;;;;;0.65;0.10;;;2.90;99.90;;;;;;20943892;28;20043;-45
2024/03/12 00:32:59;;;;;;;0.30;0.00;;;3.10;99.90;;;;;;20998247;28;20024;-47
2024/03/12 00:43:08;;;;;;;0.35;0.08;;;3.10;99.90;;;;;;20994062;28;20032;-43
2024/03/12 00:53:13;;;;;;;0.10;0.00;;;3.40;99.90;;;;;;20995240;28;20056;-47
2024/03/12 01:03:17;;;;;;;3.20;1.90;;;3.30;99.90;;;;;;20996220;28;20028;-46
2024/03/12 01:13:20;;;;;;;0.50;0.03;;;3.30;99.90;;;;;;20994413;28;20047;-44
2024/03/12 01:23:22;;;;;;;0.30;0.10;;;3.50;99.90;;;;;;20994109;28;20553;-43
2024/03/12 01:33:27;;;;;;;0.20;0.00;;;3.10;99.90;;;;;;20994001;28;20032;-45
2024/03/12 01:43:29;;;;;;;0.10;0.10;;;2.90;99.90;;;;;;20992403;28;20089;-45
2024/03/12 01:53:32;;;;;;;3.83;0.20;;;2.50;99.90;;;;;;21008967;28;20102;-49
2024/03/12 02:03:34;;;;;;;0.30;0.10;;;2.40;99.90;;;;;;21075230;28;20032;-40
2024/03/12 02:13:36;;;;;;;0.65;0.10;;;3.10;99.90;;;;;;21074119;28;20023;-44
2024/03/12 02:23:44;;;;;;;0.22;0.00;;;3.70;99.90;;;;;;21073513;28;20040;-45
2024/03/12 02:33:46;;;;;;;0.17;0.03;;;3.50;99.90;;;;;;21073297;28;20035;-46
2024/03/12 02:43:48;;;;;;;0.40;0.08;;;2.80;99.90;;;;;;21071290;28;20081;-47
2024/03/12 02:53:50;;;;;;;0.40;0.10;;;3.00;99.90;;;;;;21071876;28;20635;-44
2024/03/12 03:03:52;;;;;;;0.88;0.10;;;3.10;99.90;;;;;;21071167;28;20070;-44
2024/03/12 03:13:53;;;;;;;0.55;0.10;;;3.40;99.90;;;;;;21071078;28;20092;-45
2024/03/12 03:23:56;;;;;;;0.40;0.10;;;2.60;99.90;;;;;;21070856;28;20040;-44
2024/03/12 03:34:04;;;;;;;0.10;0.00;;;2.50;99.90;;;;;;21070239;28;20085;-44
2024/03/12 03:44:06;;;;;;;0.50;0.10;;;2.60;99.90;;;;;;21072549;28;20032;-47
2024/03/12 03:54:12;;;;;;;0.85;0.20;;;2.60;99.90;;;;;;21041751;28;20082;-44
2024/03/12 04:04:15;;;;;;;0.00;0.00;;;2.20;99.90;;;;;;20966271;28;20059;-45
2024/03/12 04:14:18;;;;;;;0.00;0.00;;;2.60;99.90;;;;;;20999782;28;20066;-45
2024/03/12 04:24:19;;;;;;;0.20;0.10;;;3.30;99.90;;;;;;20981164;28;20067;-48
2024/03/12 04:34:21;;;;;;;0.63;0.03;;;3.30;99.90;;;;;;21032509;28;20554;-45
2024/03/12 04:44:23;;;;;;;0.00;0.00;;;3.00;99.90;;;;;;20934288;28;20029;-46
2024/03/12 04:54:25;;;;;;;0.43;0.10;;;2.90;99.90;;;;;;20994065;28;20040;-42
2024/03/12 05:04:27;;;;;;;0.17;0.05;;;3.00;99.90;;;;;;20995557;28;20036;-44
2024/03/12 05:14:29;;;;;;;0.20;0.10;;;3.00;99.90;;;;;;20994587;28;20863;-48
2024/03/12 05:24:33;;;;;;;0.28;0.17;;;3.00;99.90;;;;;;20994885;28;20068;-48
2024/03/12 05:34:44;;;;;;;0.57;0.43;;;3.20;99.90;;;;;;20975905;28;20040;-44
2024/03/12 05:55:10;;;;;;;0.40;0.10;;;3.30;99.90;;;;;;21037169;28;20055;-43
2024/03/12 06:05:12;;;;;;;0.00;0.00;;;3.30;99.90;;;;;;21074678;28;20462;-47
2024/03/12 06:15:14;;;;;;;0.82;0.20;;;3.20;99.90;;;;;;21074029;28;20032;-43
2024/03/12 06:25:16;;;;;;;0.10;0.10;;;3.20;99.90;;;;;;21072454;28;20081;-47
2024/03/12 06:35:18;;;;;;;0.00;0.00;;;3.50;99.90;;;;;;21054484;28;20449;-46
2024/03/12 06:45:21;;;;;;;0.20;0.10;;;3.50;99.90;;;;;;21072254;28;20058;-42
2024/03/12 06:55:26;;;;;;;0.10;0.00;;;3.60;99.90;;;;;;21068843;28;20044;-48
2024/03/12 07:05:30;;;;;;;0.25;0.05;;;3.80;99.90;;;;;;21068937;28;20024;-47
2024/03/12 07:15:35;;;;;;;0.20;0.10;;;4.20;99.90;;;;;;21035135;28;20052;-47
2024/03/12 07:25:37;;;;;;;0.10;0.10;;;4.60;99.90;;;;;;21074534;28;20051;-47
2024/03/12 07:35:39;;;;;;;0.25;0.00;;;5.30;99.90;;;;;;21012619;28;20043;-45
2024/03/12 07:45:46;;;;;;;0.30;0.05;;;5.90;99.60;;;;;;21086147;28;20117;-49
2024/03/12 07:55:53;;;;;;;0.28;0.00;;;6.40;98.40;;;;;;21031333;28;20082;-43
2024/03/12 08:05:54;;;;;;;0.03;0.00;;;6.00;97.80;;;;;;21000510;28;20036;-41
2024/03/12 08:15:56;;;;;;;0.47;0.00;;;6.40;98.20;;;;;;20982665;28;20028;-45
2024/03/12 08:25:58;;;;;;;1.55;0.00;;;7.40;96.40;;;;;;20989883;28;20035;-45
2024/03/12 08:35:59;;;;;;;0.40;0.40;;;7.60;95.70;;;;;;20997143;28;20052;-43
2024/03/12 08:46:02;;;;;;;0.30;0.10;;;7.80;96.60;;;;;;21004560;28;20020;-45
2024/03/12 08:56:07;;;;;;;0.10;0.10;;;7.50;94.90;;;;;;21024328;28;20442;-41
2024/03/12 09:06:09;;;;;;;0.03;0.00;;;7.80;95.30;;;;;;20990469;28;20036;-43
2024/03/12 09:16:13;;;;;;;0.30;0.00;;;8.40;94.50;;;;;;20992837;28;20483;-47
2024/03/12 09:26:15;;;;;;;0.05;0.00;;;9.10;94.20;;;;;;20990118;28;20090;-46
2024/03/12 09:36:16;;;;;;;0.00;0.00;;;9.10;93.50;;;;;;20983211;28;20059;-45
2024/03/12 09:46:19;;;;;;;0.52;0.00;;;8.50;93.10;;;;;;20961647;28;20032;-47
2024/03/12 09:56:21;;;;;;;1.65;0.00;;;8.80;92.90;;;;;;21051653;28;20457;-47
2024/03/12 10:06:25;;;;;;;0.80;0.00;;;8.80;92.90;;;;;;21013327;28;20032;-44
2024/03/12 10:16:30;;;;;;;0.15;0.05;;;8.80;92.30;;;;;;21027875;28;20048;-40
2024/03/12 10:26:31;;;;;;;0.10;0.10;;;9.30;92.70;;;;;;21034321;28;20411;-44
2024/03/12 10:36:33;;;;;;;0.00;0.00;;;9.60;91.20;;;;;;21123857;28;20104;-40
2024/03/12 10:46:36;;;;;;;0.03;0.00;;;9.70;90.80;;;;;;21145297;28;20036;-42
2024/03/12 10:56:38;;;;;;;0.28;0.10;;;10.20;90.40;;;;;;21127165;28;20089;-43
2024/03/12 11:06:40;;;;;;;0.00;0.00;;;10.30;88.60;;;;;;21148877;28;20035;-40
2024/03/12 11:16:43;;;;;;;0.52;0.10;;;10.10;89.40;;;;;;21155627;28;20073;-40
2024/03/12 11:26:51;;;;;;;0.00;0.00;;;10.10;86.80;;;;;;21104566;28;20028;-41
2024/03/12 11:37:11;;;;;;;0.30;0.08;;;10.20;86.30;;;;;;21102099;28;20027;-43
2024/03/12 11:47:34;;;;;;;0.00;0.00;;;10.40;85.20;;;;;;21144963;28;20387;-40
2024/03/12 11:57:37;;;;;;;0.17;0.00;;;10.40;89.00;;;;;;21080614;28;20121;-41
2024/03/12 12:07:38;;;;;;;0.00;0.00;;;10.60;84.80;;;;;;21132801;28;20486;-40
2024/03/12 12:17:40;;;;;;;1.50;0.10;;;10.90;89.30;;;;;;21145947;28;20080;-41
2024/03/12 12:27:46;;;;;;;0.57;0.00;;;11.20;86.90;;;;;;21167232;28;20056;-41
2024/03/12 12:37:50;;;;;;;0.32;0.10;;;10.70;87.00;;;;;;21107482;28;20483;-44
2024/03/12 12:47:52;;;;;;;0.45;0.13;;;11.00;86.20;;;;;;21096828;28;20028;-40
2024/03/12 12:58:07;;;;;;;0.43;0.10;;;10.70;84.80;;;;;;21106432;28;20031;-58
2024/03/12 13:08:29;;;;;;;0.68;0.00;;;10.70;88.90;;;;;;21128560;28;20539;-51
2024/03/12 13:18:32;;;;;;;0.57;0.10;;;10.90;89.00;;;;;;21143301;28;20043;-53
2024/03/12 13:28:35;;;;;;;1.02;0.10;;;11.50;81.70;;;;;;21123922;28;20024;-53
2024/03/12 13:38:39;;;;;;;0.10;0.10;;;10.80;81.90;;;;;;21115461;28;20367;-55
2024/03/12 13:48:41;;;;;;;1.50;0.10;;;11.10;83.20;;;;;;21140837;28;20048;-54
2024/03/12 13:58:44;;;;;;;0.10;0.03;;;10.90;83.90;;;;;;21149510;28;20024;-50
2024/03/12 14:08:50;;;;;;;0.93;0.15;;;10.80;82.50;;;;;;21151352;28;20035;-48
2024/03/12 14:18:53;;;;;;;0.10;0.00;;;10.10;83.20;;;;;;21114204;28;20073;-41
2024/03/12 14:28:55;;;;;;;0.15;0.10;;;9.70;85.80;;;;;;21131999;28;20027;-47
2024/03/12 14:38:57;;;;;;;0.95;0.13;;;10.40;87.40;;;;;;21085777;28;20027;-43
2024/03/12 14:48:59;;;;;;;0.38;0.10;;;10.50;83.40;;;;;;21130025;28;20088;-43
2024/03/12 14:59:03;;;;;;;0.40;0.08;;;10.00;84.10;;;;;;21071767;28;20036;-44
2024/03/12 15:09:05;;;;;;;0.00;0.00;;;9.50;85.50;;;;;;21029532;28;20039;-43
2024/03/12 15:19:08;;;;;;;0.50;0.10;;;9.10;88.30;;;;;;20996270;28;20170;-43
2024/03/12 15:29:10;;;;;;;0.10;0.05;;;9.40;87.00;;;;;;21020106;28;20024;-40
2024/03/12 15:39:14;;;;;;;0.20;0.10;;;9.20;87.20;;;;;;21037023;28;20043;-44
2024/03/12 15:49:20;;;;;;;0.28;0.10;;;9.00;87.20;;;;;;21037853;28;20040;-41
2024/03/12 15:59:22;;;;;;;0.10;0.10;;;8.60;90.40;;;;;;20742086;28;20042;-45
2024/03/12 16:09:24;;;;;;;0.25;0.10;;;7.70;92.00;;;;;;20743658;28;20069;-40
2024/03/12 16:19:29;;;;;;;1.85;0.82;;;7.00;93.20;;;;;;20740764;28;20049;-44
2024/03/12 16:29:33;;;;;;;3.03;1.00;;;6.60;93.40;;;;;;20944091;28;20037;-42
2024/03/12 16:39:38;;;;;;;3.22;1.60;;;6.20;94.80;;;;;;20996100;28;20029;-43
2024/03/12 16:49:40;;;;;;;1.15;0.73;;;5.90;94.60;;;;;;21001718;28;20040;-43
2024/03/12 16:59:42;;;;;;;0.43;0.10;;;5.40;96.90;;;;;;21079530;28;20126;-44
2024/03/12 17:09:44;;;;;;;0.50;0.10;;;5.10;97.80;;;;;;21079474;28;20081;-43
2024/03/12 17:19:46;;;;;;;0.40;0.00;;;5.10;96.50;;;;;;21060861;28;20494;-41
2024/03/12 17:29:48;;;;;;;0.00;0.00;;;4.80;98.70;;;;;;21060404;28;20031;-43
2024/03/12 17:40:00;;;;;;;1.60;0.00;;;4.70;98.70;;;;;;21078320;28;20039;-44
2024/03/12 17:50:03;;;;;;;0.65;0.00;;;4.70;97.10;;;;;;21075463;28;20032;-42
2024/03/12 18:00:09;;;;;;;0.30;0.10;;;4.80;97.60;;;;;;21034186;28;20036;-42
2024/03/12 18:10:17;;;;;;;0.68;0.10;;;4.90;97.40;;;;;;21074318;28;20043;-44
2024/03/12 18:30:21;;;;;;;0.28;0.00;;;4.80;98.90;;;;;;21073832;28;20085;-47
2024/03/12 18:40:23;;;;;;;0.10;0.00;;;4.70;98.60;;;;;;21072895;28;20147;-42
2024/03/12 18:50:27;;;;;;;0.00;0.00;;;4.50;99.20;;;;;;21054075;28;20048;-40
2024/03/12 19:00:29;;;;;;;1.85;0.10;;;4.30;99.10;;;;;;21068521;28;20040;-45
2024/03/12 19:10:31;;;;;;;0.00;0.00;;;3.90;99.30;;;;;;21070458;28;20028;-43
2024/03/12 19:20:34;;;;;;;0.52;0.00;;;3.50;98.80;;;;;;21072708;28;20074;-43
2024/03/12 19:30:37;;;;;;;0.17;0.10;;;3.60;98.60;;;;;;21087768;28;20051;-40
2024/03/12 19:40:40;;;;;;;0.32;0.00;;;3.70;98.10;;;;;;21087041;28;20468;-43
2024/03/12 19:50:43;;;;;;;0.22;0.00;;;3.70;97.10;;;;;;21085136;28;20052;-44
2024/03/12 20:00:45;;;;;;;0.20;0.00;;;3.80;97.60;;;;;;21084538;28;20044;-48
2024/03/12 20:10:48;;;;;;;0.15;0.10;;;3.70;96.90;;;;;;21027513;28;20039;-45
2024/03/12 20:20:49;;;;;;;0.10;0.10;;;4.10;97.10;;;;;;21082577;28;20031;-41
2024/03/12 20:30:52;;;;;;;0.08;0.00;;;4.10;97.10;;;;;;21041086;28;20081;-45
2024/03/12 20:40:54;;;;;;;0.20;0.00;;;3.90;96.60;;;;;;21056461;28;20085;-43
2024/03/12 20:50:56;;;;;;;0.10;0.00;;;4.10;96.60;;;;;;21054036;28;20101;-44
2024/03/12 21:00:57;;;;;;;0.17;0.00;;;4.00;96.60;;;;;;21040595;28;20054;-44
2024/03/12 21:10:59;;;;;;;0.03;0.00;;;4.30;95.50;;;;;;21042101;28;20055;-43
2024/03/12 21:21:01;;;;;;;0.45;0.00;;;4.60;94.50;;;;;;21078521;28;20089;-43
2024/03/12 21:31:03;;;;;;;1.10;0.00;;;4.80;94.00;;;;;;21060068;28;20032;-46
2024/03/12 21:41:05;;;;;;;0.55;0.00;;;4.80;94.20;;;;;;21077170;28;20032;-44
2024/03/12 21:51:07;;;;;;;0.30;0.00;;;4.90;93.80;;;;;;21058018;28;20055;-45
2024/03/12 22:01:12;;;;;;;0.50;0.00;;;4.80;94.30;;;;;;21075954;28;20433;-45
2024/03/12 22:11:14;;;;;;;0.10;0.00;;;5.00;94.00;;;;;;21075286;28;20541;-47
2024/03/12 22:21:22;;;;;;;0.00;0.00;;;5.20;93.30;;;;;;21020667;28;20089;-43
2024/03/12 22:31:24;;;;;;;0.10;0.00;;;5.10;93.30;;;;;;21055366;28;20491;-44
2024/03/12 22:41:26;;;;;;;0.10;0.00;;;5.00;93.80;;;;;;21072391;28;20035;-45
2024/03/12 22:51:28;;;;;;;0.00;0.00;;;4.90;93.60;;;;;;21071983;28;20040;-43
2024/03/12 23:01:31;;;;;;;0.00;0.00;;;5.10;93.70;;;;;;21011061;28;20049;-44
2024/03/12 23:11:33;;;;;;;0.22;0.00;;;5.10;93.70;;;;;;21058050;28;20043;-46
2024/03/12 23:21:38;;;;;;;0.03;0.00;;;5.10;93.40;;;;;;21041005;28;20102;-43
2024/03/12 23:31:40;;;;;;;0.43;0.08;;;5.10;93.10;;;;;;21028179;28;20028;-43
2024/03/12 23:41:41;;;;;;;0.10;0.00;;;5.20;93.10;;;;;;21051739;28;20032;-46
2024/03/12 23:51:43;;;;;;;0.20;0.00;;;5.10;94.00;;;;;;21069177;28;20044;-42
